sensor_id;sensor_type;location;lat;lon;timestamp;P1;durP1;ratioP1;P2;durP2;ratioP2
52586;SDS011;38480;52.724;6.436;2023-02-28T00:01:10;11.87;;;3.53;;
52586;SDS011;38480;52.724;6.436;2023-02-28T00:03:36;6.43;;;2.97;;
52586;SDS011;38480;52.724;6.436;2023-02-28T00:06:03;8.50;;;3.10;;
52586;SDS011;38480;52.724;6.436;2023-02-28T00:08:29;7.20;;;2.80;;
52586;SDS011;38480;52.724;6.436;2023-02-28T00:10:55;7.03;;;3.27;;
52586;SDS011;38480;52.724;6.436;2023-02-28T00:13:21;6.80;;;2.87;;
52586;SDS011;38480;52.724;6.436;2023-02-28T00:15:48;11.77;;;3.10;;
52586;SDS011;38480;52.724;6.436;2023-02-28T00:18:23;5.70;;;2.97;;
52586;SDS011;38480;52.724;6.436;2023-02-28T00:20:49;5.60;;;3.20;;
52586;SDS011;38480;52.724;6.436;2023-02-28T00:23:15;7.40;;;3.53;;
52586;SDS011;38480;52.724;6.436;2023-02-28T00:25:41;9.27;;;3.93;;
52586;SDS011;38480;52.724;6.436;2023-02-28T00:28:08;7.80;;;3.30;;
52586;SDS011;38480;52.724;6.436;2023-02-28T00:30:34;9.37;;;3.50;;
52586;SDS011;38480;52.724;6.436;2023-02-28T00:33:00;10.40;;;4.83;;
52586;SDS011;38480;52.724;6.436;2023-02-28T00:35:26;10.47;;;3.70;;
52586;SDS011;38480;52.724;6.436;2023-02-28T00:37:52;11.00;;;3.60;;
52586;SDS011;38480;52.724;6.436;2023-02-28T00:40:18;11.97;;;4.27;;
52586;SDS011;38480;52.724;6.436;2023-02-28T00:42:44;7.67;;;4.00;;
52586;SDS011;38480;52.724;6.436;2023-02-28T00:45:10;10.23;;;3.93;;
52586;SDS011;38480;52.724;6.436;2023-02-28T00:47:36;11.17;;;4.00;;
52586;SDS011;38480;52.724;6.436;2023-02-28T00:50:03;11.37;;;3.60;;
52586;SDS011;38480;52.724;6.436;2023-02-28T00:52:29;6.80;;;3.60;;
52586;SDS011;38480;52.724;6.436;2023-02-28T00:54:55;8.50;;;3.63;;
52586;SDS011;38480;52.724;6.436;2023-02-28T00:57:21;11.33;;;3.80;;
52586;SDS011;38480;52.724;6.436;2023-02-28T00:59:47;10.73;;;4.00;;
52586;SDS011;38480;52.724;6.436;2023-02-28T01:02:13;13.70;;;4.87;;
52586;SDS011;38480;52.724;6.436;2023-02-28T01:04:40;9.20;;;3.30;;
52586;SDS011;38480;52.724;6.436;2023-02-28T01:07:06;6.60;;;3.57;;
52586;SDS011;38480;52.724;6.436;2023-02-28T01:09:32;8.37;;;3.60;;
52586;SDS011;38480;52.724;6.436;2023-02-28T01:11:58;8.60;;;3.93;;
52586;SDS011;38480;52.724;6.436;2023-02-28T01:14:24;7.03;;;3.20;;
52586;SDS011;38480;52.724;6.436;2023-02-28T01:16:50;10.13;;;4.70;;
52586;SDS011;38480;52.724;6.436;2023-02-28T01:19:16;8.60;;;3.97;;
52586;SDS011;38480;52.724;6.436;2023-02-28T01:21:42;10.37;;;4.00;;
52586;SDS011;38480;52.724;6.436;2023-02-28T01:24:08;9.53;;;3.80;;
52586;SDS011;38480;52.724;6.436;2023-02-28T01:26:34;8.17;;;3.70;;
52586;SDS011;38480;52.724;6.436;2023-02-28T01:29:00;7.53;;;3.17;;
52586;SDS011;38480;52.724;6.436;2023-02-28T01:31:26;9.10;;;4.23;;
52586;SDS011;38480;52.724;6.436;2023-02-28T01:33:52;8.47;;;3.80;;
52586;SDS011;38480;52.724;6.436;2023-02-28T01:36:20;10.50;;;3.50;;
52586;SDS011;38480;52.724;6.436;2023-02-28T01:38:46;8.60;;;3.73;;
52586;SDS011;38480;52.724;6.436;2023-02-28T01:41:15;7.90;;;3.53;;
52586;SDS011;38480;52.724;6.436;2023-02-28T01:46:10;12.40;;;4.47;;
52586;SDS011;38480;52.724;6.436;2023-02-28T01:48:38;10.13;;;4.13;;
52586;SDS011;38480;52.724;6.436;2023-02-28T01:51:08;9.20;;;4.30;;
52586;SDS011;38480;52.724;6.436;2023-02-28T01:53:37;8.73;;;4.93;;
52586;SDS011;38480;52.724;6.436;2023-02-28T01:56:05;12.77;;;4.17;;
52586;SDS011;38480;52.724;6.436;2023-02-28T01:58:32;9.73;;;3.97;;
52586;SDS011;38480;52.724;6.436;2023-02-28T02:00:59;12.93;;;5.03;;
52586;SDS011;38480;52.724;6.436;2023-02-28T02:03:27;11.43;;;5.03;;
52586;SDS011;38480;52.724;6.436;2023-02-28T02:05:54;12.83;;;4.57;;
52586;SDS011;38480;52.724;6.436;2023-02-28T02:08:24;14.50;;;4.70;;
52586;SDS011;38480;52.724;6.436;2023-02-28T02:10:54;12.53;;;4.47;;
52586;SDS011;38480;52.724;6.436;2023-02-28T02:27:17;13.07;;;5.60;;
52586;SDS011;38480;52.724;6.436;2023-02-28T02:37:51;12.50;;;6.07;;
52586;SDS011;38480;52.724;6.436;2023-02-28T02:40:19;21.40;;;7.80;;
52586;SDS011;38480;52.724;6.436;2023-02-28T02:42:56;10.37;;;7.37;;
52586;SDS011;38480;52.724;6.436;2023-02-28T02:45:28;14.93;;;7.90;;
52586;SDS011;38480;52.724;6.436;2023-02-28T02:48:01;19.07;;;8.63;;
52586;SDS011;38480;52.724;6.436;2023-02-28T02:50:29;20.40;;;8.70;;
52586;SDS011;38480;52.724;6.436;2023-02-28T02:52:57;20.63;;;9.57;;
52586;SDS011;38480;52.724;6.436;2023-02-28T02:55:25;22.17;;;10.10;;
52586;SDS011;38480;52.724;6.436;2023-02-28T02:57:56;20.23;;;10.30;;
52586;SDS011;38480;52.724;6.436;2023-02-28T03:00:25;24.80;;;11.87;;
52586;SDS011;38480;52.724;6.436;2023-02-28T03:02:52;24.50;;;11.47;;
52586;SDS011;38480;52.724;6.436;2023-02-28T03:05:24;19.40;;;10.87;;
52586;SDS011;38480;52.724;6.436;2023-02-28T03:07:51;22.63;;;13.10;;
52586;SDS011;38480;52.724;6.436;2023-02-28T03:10:27;28.30;;;14.93;;
52586;SDS011;38480;52.724;6.436;2023-02-28T03:12:58;24.47;;;12.80;;
52586;SDS011;38480;52.724;6.436;2023-02-28T03:15:27;29.27;;;12.70;;
52586;SDS011;38480;52.724;6.436;2023-02-28T03:18:00;30.00;;;14.03;;
52586;SDS011;38480;52.724;6.436;2023-02-28T03:20:32;23.30;;;13.60;;
52586;SDS011;38480;52.724;6.436;2023-02-28T03:25:29;30.03;;;14.50;;
52586;SDS011;38480;52.724;6.436;2023-02-28T03:28:05;23.63;;;13.57;;
52586;SDS011;38480;52.724;6.436;2023-02-28T03:30:35;27.47;;;13.53;;
52586;SDS011;38480;52.724;6.436;2023-02-28T03:35:32;26.93;;;14.13;;
52586;SDS011;38480;52.724;6.436;2023-02-28T03:38:44;27.57;;;14.63;;
52586;SDS011;38480;52.724;6.436;2023-02-28T03:40:51;39.83;;;15.23;;
52586;SDS011;38480;52.724;6.436;2023-02-28T03:43:25;50.97;;;16.77;;
52586;SDS011;38480;52.724;6.436;2023-02-28T03:45:53;43.00;;;17.60;;
52586;SDS011;38480;52.724;6.436;2023-02-28T03:48:31;56.33;;;20.30;;
52586;SDS011;38480;52.724;6.436;2023-02-28T03:50:57;43.07;;;18.90;;
52586;SDS011;38480;52.724;6.436;2023-02-28T03:53:29;40.63;;;17.40;;
52586;SDS011;38480;52.724;6.436;2023-02-28T03:56:09;47.57;;;17.70;;
52586;SDS011;38480;52.724;6.436;2023-02-28T04:04:03;52.97;;;19.13;;
52586;SDS011;38480;52.724;6.436;2023-02-28T04:06:30;64.57;;;22.10;;
52586;SDS011;38480;52.724;6.436;2023-02-28T04:08:57;43.73;;;18.77;;
52586;SDS011;38480;52.724;6.436;2023-02-28T04:13:49;50.53;;;19.30;;
52586;SDS011;38480;52.724;6.436;2023-02-28T04:16:15;53.23;;;18.87;;
52586;SDS011;38480;52.724;6.436;2023-02-28T04:18:41;55.43;;;20.40;;
52586;SDS011;38480;52.724;6.436;2023-02-28T04:21:11;59.63;;;21.00;;
52586;SDS011;38480;52.724;6.436;2023-02-28T04:23:37;67.30;;;23.53;;
52586;SDS011;38480;52.724;6.436;2023-02-28T04:26:03;65.97;;;22.47;;
52586;SDS011;38480;52.724;6.436;2023-02-28T04:28:30;67.07;;;20.93;;
52586;SDS011;38480;52.724;6.436;2023-02-28T04:30:57;66.73;;;24.87;;
52586;SDS011;38480;52.724;6.436;2023-02-28T04:33:23;71.07;;;21.60;;
52586;SDS011;38480;52.724;6.436;2023-02-28T04:36:10;56.07;;;21.23;;
52586;SDS011;38480;52.724;6.436;2023-02-28T04:38:36;76.17;;;23.73;;
52586;SDS011;38480;52.724;6.436;2023-02-28T04:41:02;58.17;;;21.67;;
52586;SDS011;38480;52.724;6.436;2023-02-28T04:43:29;68.37;;;23.53;;
52586;SDS011;38480;52.724;6.436;2023-02-28T04:45:56;82.43;;;24.90;;
52586;SDS011;38480;52.724;6.436;2023-02-28T04:48:23;84.40;;;23.93;;
52586;SDS011;38480;52.724;6.436;2023-02-28T04:50:49;86.57;;;25.70;;
52586;SDS011;38480;52.724;6.436;2023-02-28T04:53:15;71.77;;;23.40;;
52586;SDS011;38480;52.724;6.436;2023-02-28T04:55:42;91.00;;;25.33;;
52586;SDS011;38480;52.724;6.436;2023-02-28T04:58:08;66.67;;;21.73;;
52586;SDS011;38480;52.724;6.436;2023-02-28T05:00:34;76.50;;;23.90;;
52586;SDS011;38480;52.724;6.436;2023-02-28T05:03:00;84.60;;;25.60;;
52586;SDS011;38480;52.724;6.436;2023-02-28T05:05:26;90.17;;;26.93;;
52586;SDS011;38480;52.724;6.436;2023-02-28T05:07:52;45.87;;;19.07;;
52586;SDS011;38480;52.724;6.436;2023-02-28T05:10:20;33.03;;;15.60;;
52586;SDS011;38480;52.724;6.436;2023-02-28T05:12:46;25.63;;;13.20;;
52586;SDS011;38480;52.724;6.436;2023-02-28T05:15:13;32.50;;;15.47;;
52586;SDS011;38480;52.724;6.436;2023-02-28T05:17:39;34.77;;;15.83;;
52586;SDS011;38480;52.724;6.436;2023-02-28T05:20:06;48.20;;;18.60;;
52586;SDS011;38480;52.724;6.436;2023-02-28T05:22:33;46.20;;;18.73;;
52586;SDS011;38480;52.724;6.436;2023-02-28T05:24:59;51.47;;;18.57;;
52586;SDS011;38480;52.724;6.436;2023-02-28T05:27:25;52.43;;;19.33;;
52586;SDS011;38480;52.724;6.436;2023-02-28T05:29:53;66.03;;;22.60;;
52586;SDS011;38480;52.724;6.436;2023-02-28T05:32:19;48.03;;;20.27;;
52586;SDS011;38480;52.724;6.436;2023-02-28T05:34:45;38.03;;;17.73;;
52586;SDS011;38480;52.724;6.436;2023-02-28T05:37:12;43.93;;;18.07;;
52586;SDS011;38480;52.724;6.436;2023-02-28T05:39:39;60.97;;;20.27;;
52586;SDS011;38480;52.724;6.436;2023-02-28T05:42:05;71.57;;;22.53;;
52586;SDS011;38480;52.724;6.436;2023-02-28T05:44:33;70.33;;;23.43;;
52586;SDS011;38480;52.724;6.436;2023-02-28T05:46:59;70.57;;;22.73;;
52586;SDS011;38480;52.724;6.436;2023-02-28T05:49:25;82.00;;;24.00;;
52586;SDS011;38480;52.724;6.436;2023-02-28T05:51:51;65.27;;;21.63;;
52586;SDS011;38480;52.724;6.436;2023-02-28T05:54:17;58.13;;;20.87;;
52586;SDS011;38480;52.724;6.436;2023-02-28T05:56:43;53.60;;;20.50;;
52586;SDS011;38480;52.724;6.436;2023-02-28T05:59:10;48.77;;;20.07;;
52586;SDS011;38480;52.724;6.436;2023-02-28T06:01:38;44.57;;;19.03;;
52586;SDS011;38480;52.724;6.436;2023-02-28T06:04:06;76.13;;;23.93;;
52586;SDS011;38480;52.724;6.436;2023-02-28T06:06:34;70.43;;;21.53;;
52586;SDS011;38480;52.724;6.436;2023-02-28T06:09:02;67.97;;;22.57;;
52586;SDS011;38480;52.724;6.436;2023-02-28T06:11:28;52.83;;;19.43;;
52586;SDS011;38480;52.724;6.436;2023-02-28T06:13:55;48.07;;;19.10;;
52586;SDS011;38480;52.724;6.436;2023-02-28T06:16:21;54.37;;;20.17;;
52586;SDS011;38480;52.724;6.436;2023-02-28T06:18:47;69.73;;;22.43;;
52586;SDS011;38480;52.724;6.436;2023-02-28T06:21:13;85.47;;;23.83;;
52586;SDS011;38480;52.724;6.436;2023-02-28T06:23:39;48.57;;;20.33;;
52586;SDS011;38480;52.724;6.436;2023-02-28T06:26:06;74.10;;;23.87;;
52586;SDS011;38480;52.724;6.436;2023-02-28T06:28:32;80.73;;;24.03;;
52586;SDS011;38480;52.724;6.436;2023-02-28T06:30:58;71.00;;;22.37;;
52586;SDS011;38480;52.724;6.436;2023-02-28T06:33:24;81.90;;;24.87;;
52586;SDS011;38480;52.724;6.436;2023-02-28T06:35:50;86.27;;;24.13;;
52586;SDS011;38480;52.724;6.436;2023-02-28T06:38:17;73.80;;;22.23;;
52586;SDS011;38480;52.724;6.436;2023-02-28T06:40:43;97.47;;;26.10;;
52586;SDS011;38480;52.724;6.436;2023-02-28T06:43:09;85.93;;;24.37;;
52586;SDS011;38480;52.724;6.436;2023-02-28T06:45:41;120.43;;;28.97;;
52586;SDS011;38480;52.724;6.436;2023-02-28T06:48:07;84.83;;;25.30;;
52586;SDS011;38480;52.724;6.436;2023-02-28T06:50:35;67.23;;;23.40;;
52586;SDS011;38480;52.724;6.436;2023-02-28T06:53:02;82.00;;;25.10;;
52586;SDS011;38480;52.724;6.436;2023-02-28T06:55:28;63.70;;;22.27;;
52586;SDS011;38480;52.724;6.436;2023-02-28T06:57:54;65.23;;;22.40;;
52586;SDS011;38480;52.724;6.436;2023-02-28T07:00:20;68.70;;;23.37;;
52586;SDS011;38480;52.724;6.436;2023-02-28T07:02:46;102.23;;;27.73;;
52586;SDS011;38480;52.724;6.436;2023-02-28T07:05:12;69.47;;;22.60;;
52586;SDS011;38480;52.724;6.436;2023-02-28T07:07:39;84.73;;;25.87;;
52586;SDS011;38480;52.724;6.436;2023-02-28T07:10:09;67.67;;;24.53;;
52586;SDS011;38480;52.724;6.436;2023-02-28T07:12:36;106.57;;;30.43;;
52586;SDS011;38480;52.724;6.436;2023-02-28T07:15:02;100.20;;;27.17;;
52586;SDS011;38480;52.724;6.436;2023-02-28T07:17:28;83.40;;;26.93;;
52586;SDS011;38480;52.724;6.436;2023-02-28T07:19:54;89.97;;;27.97;;
52586;SDS011;38480;52.724;6.436;2023-02-28T07:22:21;88.47;;;28.73;;
52586;SDS011;38480;52.724;6.436;2023-02-28T07:24:47;72.43;;;27.20;;
52586;SDS011;38480;52.724;6.436;2023-02-28T07:27:13;68.53;;;26.17;;
52586;SDS011;38480;52.724;6.436;2023-02-28T07:29:48;76.77;;;28.83;;
52586;SDS011;38480;52.724;6.436;2023-02-28T07:32:15;55.07;;;22.63;;
52586;SDS011;38480;52.724;6.436;2023-02-28T07:34:41;59.33;;;22.03;;
52586;SDS011;38480;52.724;6.436;2023-02-28T07:37:07;42.57;;;19.03;;
52586;SDS011;38480;52.724;6.436;2023-02-28T07:39:33;40.30;;;18.97;;
52586;SDS011;38480;52.724;6.436;2023-02-28T07:41:59;63.53;;;25.63;;
52586;SDS011;38480;52.724;6.436;2023-02-28T07:44:26;64.73;;;24.43;;
52586;SDS011;38480;52.724;6.436;2023-02-28T07:46:53;47.17;;;20.10;;
52586;SDS011;38480;52.724;6.436;2023-02-28T07:49:19;56.93;;;21.17;;
52586;SDS011;38480;52.724;6.436;2023-02-28T07:51:45;46.30;;;20.10;;
52586;SDS011;38480;52.724;6.436;2023-02-28T07:54:11;46.30;;;20.33;;
52586;SDS011;38480;52.724;6.436;2023-02-28T07:56:37;30.93;;;16.90;;
52586;SDS011;38480;52.724;6.436;2023-02-28T07:59:03;43.07;;;20.73;;
52586;SDS011;38480;52.724;6.436;2023-02-28T08:01:29;46.90;;;19.97;;
52586;SDS011;38480;52.724;6.436;2023-02-28T08:03:55;36.90;;;18.17;;
52586;SDS011;38480;52.724;6.436;2023-02-28T08:06:23;33.90;;;17.00;;
52586;SDS011;38480;52.724;6.436;2023-02-28T08:08:49;27.70;;;14.93;;
52586;SDS011;38480;52.724;6.436;2023-02-28T08:11:16;30.27;;;15.23;;
52586;SDS011;38480;52.724;6.436;2023-02-28T08:13:42;27.90;;;14.77;;
52586;SDS011;38480;52.724;6.436;2023-02-28T08:16:09;25.20;;;13.60;;
52586;SDS011;38480;52.724;6.436;2023-02-28T08:18:35;18.30;;;10.93;;
52586;SDS011;38480;52.724;6.436;2023-02-28T08:21:10;22.27;;;13.07;;
52586;SDS011;38480;52.724;6.436;2023-02-28T08:23:37;22.73;;;13.17;;
52586;SDS011;38480;52.724;6.436;2023-02-28T08:26:03;30.30;;;14.70;;
52586;SDS011;38480;52.724;6.436;2023-02-28T08:28:30;27.33;;;14.93;;
52586;SDS011;38480;52.724;6.436;2023-02-28T08:30:56;19.93;;;12.27;;
52586;SDS011;38480;52.724;6.436;2023-02-28T08:33:23;27.33;;;14.43;;
52586;SDS011;38480;52.724;6.436;2023-02-28T08:35:52;29.30;;;13.97;;
52586;SDS011;38480;52.724;6.436;2023-02-28T08:38:18;20.33;;;11.80;;
52586;SDS011;38480;52.724;6.436;2023-02-28T08:40:44;24.03;;;12.90;;
52586;SDS011;38480;52.724;6.436;2023-02-28T08:43:10;24.20;;;12.93;;
52586;SDS011;38480;52.724;6.436;2023-02-28T08:45:36;25.17;;;14.13;;
52586;SDS011;38480;52.724;6.436;2023-02-28T08:48:02;18.03;;;10.00;;
52586;SDS011;38480;52.724;6.436;2023-02-28T08:50:29;15.60;;;10.60;;
52586;SDS011;38480;52.724;6.436;2023-02-28T08:52:55;16.60;;;10.37;;
52586;SDS011;38480;52.724;6.436;2023-02-28T08:55:21;18.77;;;11.10;;
52586;SDS011;38480;52.724;6.436;2023-02-28T08:57:47;16.20;;;11.00;;
52586;SDS011;38480;52.724;6.436;2023-02-28T09:00:13;15.67;;;9.60;;
52586;SDS011;38480;52.724;6.436;2023-02-28T09:02:40;17.87;;;10.87;;
52586;SDS011;38480;52.724;6.436;2023-02-28T09:05:07;16.33;;;10.57;;
52586;SDS011;38480;52.724;6.436;2023-02-28T09:07:34;17.07;;;9.53;;
52586;SDS011;38480;52.724;6.436;2023-02-28T09:10:00;14.23;;;9.63;;
52586;SDS011;38480;52.724;6.436;2023-02-28T09:12:26;14.53;;;8.07;;
52586;SDS011;38480;52.724;6.436;2023-02-28T09:14:55;12.63;;;8.70;;
52586;SDS011;38480;52.724;6.436;2023-02-28T09:17:21;14.50;;;8.17;;
52586;SDS011;38480;52.724;6.436;2023-02-28T09:19:47;7.17;;;4.70;;
52586;SDS011;38480;52.724;6.436;2023-02-28T09:22:14;10.57;;;4.50;;
52586;SDS011;38480;52.724;6.436;2023-02-28T09:24:40;10.23;;;5.60;;
52586;SDS011;38480;52.724;6.436;2023-02-28T09:27:06;11.23;;;6.73;;
52586;SDS011;38480;52.724;6.436;2023-02-28T09:29:33;7.10;;;5.13;;
52586;SDS011;38480;52.724;6.436;2023-02-28T09:32:00;13.57;;;6.07;;
52586;SDS011;38480;52.724;6.436;2023-02-28T09:34:26;10.17;;;6.23;;
52586;SDS011;38480;52.724;6.436;2023-02-28T09:36:55;9.57;;;5.73;;
52586;SDS011;38480;52.724;6.436;2023-02-28T09:39:22;9.90;;;6.03;;
52586;SDS011;38480;52.724;6.436;2023-02-28T09:41:51;8.57;;;5.70;;
52586;SDS011;38480;52.724;6.436;2023-02-28T09:46:48;11.07;;;5.07;;
52586;SDS011;38480;52.724;6.436;2023-02-28T09:49:16;9.07;;;6.00;;
52586;SDS011;38480;52.724;6.436;2023-02-28T09:51:48;7.03;;;4.33;;
52586;SDS011;38480;52.724;6.436;2023-02-28T09:54:20;7.07;;;3.65;;
52586;SDS011;38480;52.724;6.436;2023-02-28T09:56:51;4.83;;;2.67;;
52586;SDS011;38480;52.724;6.436;2023-02-28T09:59:34;5.40;;;2.80;;
52586;SDS011;38480;52.724;6.436;2023-02-28T10:02:24;3.70;;;2.55;;
52586;SDS011;38480;52.724;6.436;2023-02-28T10:05:03;6.95;;;2.20;;
52586;SDS011;38480;52.724;6.436;2023-02-28T10:12:46;2.43;;;1.10;;
52586;SDS011;38480;52.724;6.436;2023-02-28T10:15:13;1.97;;;1.10;;
52586;SDS011;38480;52.724;6.436;2023-02-28T10:17:40;3.73;;;1.83;;
52586;SDS011;38480;52.724;6.436;2023-02-28T10:20:07;4.90;;;1.73;;
52586;SDS011;38480;52.724;6.436;2023-02-28T10:22:41;7.67;;;1.50;;
52586;SDS011;38480;52.724;6.436;2023-02-28T10:25:17;4.30;;;1.70;;
52586;SDS011;38480;52.724;6.436;2023-02-28T10:27:44;3.00;;;1.50;;
52586;SDS011;38480;52.724;6.436;2023-02-28T10:30:10;3.27;;;1.70;;
52586;SDS011;38480;52.724;6.436;2023-02-28T10:32:38;4.73;;;1.50;;
52586;SDS011;38480;52.724;6.436;2023-02-28T10:37:38;3.90;;;2.17;;
52586;SDS011;38480;52.724;6.436;2023-02-28T10:40:05;2.37;;;1.20;;
52586;SDS011;38480;52.724;6.436;2023-02-28T10:42:31;4.57;;;1.87;;
52586;SDS011;38480;52.724;6.436;2023-02-28T10:47:40;4.30;;;1.73;;
52586;SDS011;38480;52.724;6.436;2023-02-28T10:50:25;6.70;;;2.00;;
52586;SDS011;38480;52.724;6.436;2023-02-28T10:52:52;3.20;;;1.67;;
52586;SDS011;38480;52.724;6.436;2023-02-28T10:55:23;3.07;;;1.73;;
52586;SDS011;38480;52.724;6.436;2023-02-28T10:57:52;4.83;;;2.10;;
52586;SDS011;38480;52.724;6.436;2023-02-28T11:00:23;4.70;;;1.80;;
52586;SDS011;38480;52.724;6.436;2023-02-28T11:02:50;5.13;;;1.90;;
52586;SDS011;38480;52.724;6.436;2023-02-28T11:08:34;4.97;;;1.90;;
52586;SDS011;38480;52.724;6.436;2023-02-28T11:10:34;4.23;;;1.70;;
52586;SDS011;38480;52.724;6.436;2023-02-28T11:13:01;5.30;;;2.03;;
52586;SDS011;38480;52.724;6.436;2023-02-28T11:15:32;4.40;;;1.90;;
52586;SDS011;38480;52.724;6.436;2023-02-28T11:18:00;3.67;;;2.10;;
52586;SDS011;38480;52.724;6.436;2023-02-28T11:20:28;4.20;;;2.07;;
52586;SDS011;38480;52.724;6.436;2023-02-28T11:22:55;3.90;;;1.83;;
52586;SDS011;38480;52.724;6.436;2023-02-28T11:25:24;3.27;;;1.70;;
52586;SDS011;38480;52.724;6.436;2023-02-28T11:27:52;3.60;;;1.67;;
52586;SDS011;38480;52.724;6.436;2023-02-28T11:32:57;5.30;;;1.70;;
52586;SDS011;38480;52.724;6.436;2023-02-28T11:37:49;3.23;;;1.23;;
52586;SDS011;38480;52.724;6.436;2023-02-28T11:40:16;4.33;;;1.40;;
52586;SDS011;38480;52.724;6.436;2023-02-28T11:42:57;3.27;;;1.40;;
52586;SDS011;38480;52.724;6.436;2023-02-28T11:45:38;4.97;;;1.80;;
52586;SDS011;38480;52.724;6.436;2023-02-28T11:48:32;3.03;;;1.13;;
52586;SDS011;38480;52.724;6.436;2023-02-28T11:50:56;3.27;;;1.50;;
52586;SDS011;38480;52.724;6.436;2023-02-28T11:53:34;2.73;;;1.47;;
52586;SDS011;38480;52.724;6.436;2023-02-28T12:09:47;3.10;;;1.60;;
52586;SDS011;38480;52.724;6.436;2023-02-28T12:24:39;2.30;;;1.20;;
52586;SDS011;38480;52.724;6.436;2023-02-28T12:27:11;2.20;;;1.10;;
52586;SDS011;38480;52.724;6.436;2023-02-28T12:35:04;4.30;;;1.63;;
52586;SDS011;38480;52.724;6.436;2023-02-28T12:37:40;2.63;;;1.42;;
52586;SDS011;38480;52.724;6.436;2023-02-28T12:40:12;2.67;;;1.00;;
52586;SDS011;38480;52.724;6.436;2023-02-28T12:42:40;3.37;;;1.10;;
52586;SDS011;38480;52.724;6.436;2023-02-28T12:47:36;5.03;;;1.30;;
52586;SDS011;38480;52.724;6.436;2023-02-28T12:50:04;4.00;;;1.30;;
52586;SDS011;38480;52.724;6.436;2023-02-28T12:52:40;2.77;;;1.50;;
52586;SDS011;38480;52.724;6.436;2023-02-28T12:55:30;4.23;;;1.50;;
52586;SDS011;38480;52.724;6.436;2023-02-28T13:00:43;3.97;;;1.30;;
52586;SDS011;38480;52.724;6.436;2023-02-28T13:06:14;2.10;;;1.13;;
52586;SDS011;38480;52.724;6.436;2023-02-28T13:11:32;2.97;;;1.33;;
52586;SDS011;38480;52.724;6.436;2023-02-28T13:14:03;4.70;;;1.67;;
52586;SDS011;38480;52.724;6.436;2023-02-28T13:16:47;4.00;;;1.40;;
52586;SDS011;38480;52.724;6.436;2023-02-28T13:19:16;3.03;;;1.50;;
52586;SDS011;38480;52.724;6.436;2023-02-28T13:21:43;2.30;;;1.17;;
52586;SDS011;38480;52.724;6.436;2023-02-28T13:24:10;3.63;;;1.40;;
52586;SDS011;38480;52.724;6.436;2023-02-28T13:34:31;4.23;;;1.40;;
52586;SDS011;38480;52.724;6.436;2023-02-28T13:39:53;4.93;;;1.80;;
52586;SDS011;38480;52.724;6.436;2023-02-28T13:47:35;3.07;;;1.70;;
52586;SDS011;38480;52.724;6.436;2023-02-28T13:50:21;2.50;;;1.40;;
52586;SDS011;38480;52.724;6.436;2023-02-28T14:00:36;4.10;;;1.50;;
52586;SDS011;38480;52.724;6.436;2023-02-28T14:05:35;5.80;;;2.00;;
52586;SDS011;38480;52.724;6.436;2023-02-28T14:08:07;2.30;;;1.43;;
52586;SDS011;38480;52.724;6.436;2023-02-28T14:10:48;4.30;;;1.93;;
52586;SDS011;38480;52.724;6.436;2023-02-28T14:15:57;7.70;;;2.97;;
52586;SDS011;38480;52.724;6.436;2023-02-28T14:18:33;2.90;;;1.50;;
52586;SDS011;38480;52.724;6.436;2023-02-28T14:23:49;14.93;;;6.23;;
52586;SDS011;38480;52.724;6.436;2023-02-28T14:29:23;3.60;;;1.50;;
52586;SDS011;38480;52.724;6.436;2023-02-28T14:37:15;3.35;;;1.80;;
52586;SDS011;38480;52.724;6.436;2023-02-28T14:39:41;3.87;;;1.70;;
52586;SDS011;38480;52.724;6.436;2023-02-28T14:42:27;3.07;;;1.50;;
52586;SDS011;38480;52.724;6.436;2023-02-28T14:44:54;5.13;;;1.67;;
52586;SDS011;38480;52.724;6.436;2023-02-28T14:47:21;3.47;;;1.70;;
52586;SDS011;38480;52.724;6.436;2023-02-28T14:49:49;4.10;;;2.37;;
52586;SDS011;38480;52.724;6.436;2023-02-28T14:52:17;5.00;;;1.87;;
52586;SDS011;38480;52.724;6.436;2023-02-28T14:54:44;3.73;;;1.60;;
52586;SDS011;38480;52.724;6.436;2023-02-28T14:57:21;4.77;;;2.30;;
52586;SDS011;38480;52.724;6.436;2023-02-28T14:59:56;3.37;;;1.50;;
52586;SDS011;38480;52.724;6.436;2023-02-28T15:02:23;3.77;;;1.70;;
52586;SDS011;38480;52.724;6.436;2023-02-28T15:04:57;3.67;;;2.07;;
52586;SDS011;38480;52.724;6.436;2023-02-28T15:07:24;3.17;;;1.70;;
52586;SDS011;38480;52.724;6.436;2023-02-28T15:12:35;3.00;;;1.83;;
52586;SDS011;38480;52.724;6.436;2023-02-28T15:15:01;2.50;;;1.40;;
52586;SDS011;38480;52.724;6.436;2023-02-28T15:17:27;2.87;;;1.70;;
52586;SDS011;38480;52.724;6.436;2023-02-28T15:19:53;4.43;;;1.77;;
52586;SDS011;38480;52.724;6.436;2023-02-28T15:22:23;5.43;;;1.93;;
52586;SDS011;38480;52.724;6.436;2023-02-28T15:24:53;5.03;;;2.10;;
52586;SDS011;38480;52.724;6.436;2023-02-28T15:27:27;4.03;;;1.73;;
52586;SDS011;38480;52.724;6.436;2023-02-28T15:29:57;3.57;;;1.67;;
52586;SDS011;38480;52.724;6.436;2023-02-28T15:32:28;4.90;;;2.07;;
52586;SDS011;38480;52.724;6.436;2023-02-28T15:34:55;4.03;;;1.80;;
52586;SDS011;38480;52.724;6.436;2023-02-28T15:37:29;3.30;;;1.67;;
52586;SDS011;38480;52.724;6.436;2023-02-28T15:39:56;2.93;;;1.43;;
52586;SDS011;38480;52.724;6.436;2023-02-28T15:42:23;2.43;;;1.30;;
52586;SDS011;38480;52.724;6.436;2023-02-28T15:44:53;3.10;;;1.50;;
52586;SDS011;38480;52.724;6.436;2023-02-28T15:47:22;3.07;;;1.80;;
52586;SDS011;38480;52.724;6.436;2023-02-28T15:49:53;4.27;;;1.40;;
52586;SDS011;38480;52.724;6.436;2023-02-28T15:55:17;4.67;;;1.93;;
52586;SDS011;38480;52.724;6.436;2023-02-28T15:57:43;5.43;;;2.77;;
52586;SDS011;38480;52.724;6.436;2023-02-28T16:00:11;3.87;;;1.80;;
52586;SDS011;38480;52.724;6.436;2023-02-28T16:02:38;3.90;;;1.70;;
52586;SDS011;38480;52.724;6.436;2023-02-28T16:07:34;4.37;;;2.10;;
52586;SDS011;38480;52.724;6.436;2023-02-28T16:10:01;2.50;;;1.70;;
52586;SDS011;38480;52.724;6.436;2023-02-28T16:12:27;3.83;;;1.77;;
52586;SDS011;38480;52.724;6.436;2023-02-28T16:14:54;3.20;;;2.10;;
52586;SDS011;38480;52.724;6.436;2023-02-28T16:17:22;4.73;;;1.93;;
52586;SDS011;38480;52.724;6.436;2023-02-28T16:19:48;3.67;;;2.13;;
52586;SDS011;38480;52.724;6.436;2023-02-28T16:22:14;4.20;;;2.43;;
52586;SDS011;38480;52.724;6.436;2023-02-28T16:24:40;7.37;;;2.40;;
52586;SDS011;38480;52.724;6.436;2023-02-28T16:27:06;4.17;;;2.73;;
52586;SDS011;38480;52.724;6.436;2023-02-28T16:29:36;3.93;;;2.17;;
52586;SDS011;38480;52.724;6.436;2023-02-28T16:32:06;5.37;;;2.40;;
52586;SDS011;38480;52.724;6.436;2023-02-28T16:34:32;5.00;;;2.40;;
52586;SDS011;38480;52.724;6.436;2023-02-28T16:36:58;5.00;;;2.37;;
52586;SDS011;38480;52.724;6.436;2023-02-28T16:39:24;3.70;;;2.33;;
52586;SDS011;38480;52.724;6.436;2023-02-28T16:41:50;4.30;;;2.60;;
52586;SDS011;38480;52.724;6.436;2023-02-28T16:44:27;2.93;;;1.87;;
52586;SDS011;38480;52.724;6.436;2023-02-28T16:46:54;4.57;;;2.43;;
52586;SDS011;38480;52.724;6.436;2023-02-28T16:49:20;6.20;;;2.67;;
52586;SDS011;38480;52.724;6.436;2023-02-28T16:51:46;7.27;;;3.00;;
52586;SDS011;38480;52.724;6.436;2023-02-28T16:54:12;7.33;;;2.97;;
52586;SDS011;38480;52.724;6.436;2023-02-28T16:56:39;7.83;;;3.27;;
52586;SDS011;38480;52.724;6.436;2023-02-28T16:59:07;4.93;;;2.80;;
52586;SDS011;38480;52.724;6.436;2023-02-28T17:01:33;7.20;;;2.93;;
52586;SDS011;38480;52.724;6.436;2023-02-28T17:03:59;4.97;;;3.07;;
52586;SDS011;38480;52.724;6.436;2023-02-28T17:06:26;4.83;;;3.00;;
52586;SDS011;38480;52.724;6.436;2023-02-28T17:08:53;6.77;;;3.67;;
52586;SDS011;38480;52.724;6.436;2023-02-28T17:11:19;5.73;;;3.27;;